No particular awareness of the weather is required.    There are no Weather-warnings
 Banner
iom-flag.gif  iom-flag.gif


Ballaugh webcam more information Ballaugh webcam


Thunder radar more information blitzortung!


Rain radar more information rain snow radar


Visit our other weather sites:

Template documentation
and downloads

And another site



Nearby METAR Reports

   
EGNS - Isle Of Man/Rona, United Kingdom
Distance from station: SSW 16 mi
Updated: 21-10-2018 15:20
Partly Cloudy  
Partly Cloudy  
   Wind: WNW 12.7 mph
Wind: WNW 12.7 mph
Temperature: 13°C
Dew Point: 8°C
Humidity: 72%
Barometer: 1028 hPa
Clouds: Partly Cloudy
Visibility: More than 6 mi
Cloud details: Partly Cloudy 2000 ft
EGNS 211420Z 30011KT 260V350 9999 SCT020 13/08 Q1028 NOSIG
EGAC - Belfast Harbour, United Kingdom
Distance from station: WNW 57 mi
Updated: 21-10-2018 15:20
Partly Cloudy  
Partly Cloudy  
   Wind: NW 12.7 mph
Wind: NW 12.7 mph
Temperature: 14°C
Dew Point: 6°C
Humidity: 59%
Barometer: 1028 hPa
Clouds: Partly Cloudy
Visibility: More than 6 mi
Cloud details: Few Clouds 3200 ft,
Partly Cloudy 4200 ft
EGAC 211420Z AUTO 31011KT 9999 FEW032/// SCT042/// 14/06 Q1028
EGAA - Belfast/Aldergro, United Kingdom
Distance from station: WNW 71 mi
Updated: 21-10-2018 15:20
Partly Cloudy  
Partly Cloudy  
   Wind: WNW 17.3 mph
Wind: WNW 17.3 mph
Temperature: 12°C
Dew Point: 7°C
Humidity: 72%
Barometer: 1028 hPa
Clouds: Partly Cloudy
Visibility: More than 6 mi
Cloud details: Partly Cloudy 3100 ft
EGAA 211420Z 29015KT 9999 SCT031 12/07 Q1028
EGNH - Blackpool Airpor, United Kingdom
Distance from station: ESE 73 mi
Updated: 21-10-2018 15:20
Mostly Cloudy  
Mostly Cloudy  
   Wind: NW 15 mph
Wind: NW 15 mph
Temperature: 12°C
Dew Point: 10°C
Humidity: 88%
Barometer: 1027 hPa
Clouds: Mostly Cloudy
Visibility: More than 6 mi
Cloud details: Few Clouds 2000 ft,
Mostly Cloudy 4000 ft
EGNH 211420Z 31013KT 9999 FEW020 BKN040 12/10 Q1027
EGOV - Valley Raf, United Kingdom
Distance from station: S 73 mi
Updated: 21-10-2018 14:50
Mostly Cloudy  
Mostly Cloudy  
   Wind: NNW 12.7 mph
Wind: NNW 12.7 mph
Temperature: 13°C
Dew Point: 11°C
Humidity: 88%
Barometer: 1028 hPa
Clouds: Mostly Cloudy
Visibility: More than 6 mi
Cloud details: Mostly Cloudy 4300 ft
EGOV 211350Z AUTO 34011KT 9999 BKN043/// 13/11 Q1028
EGNC - Carlisle, United Kingdom
Distance from station: ENE 81 mi
Updated: 12-10-2018 14:50
NOT Current
Light Showers, Rain, Overcast  
Light Showers, Rain, Overcast  
   Wind: South 20.7 mph<br />Gust to 20.7 mph
Wind: South 20.7 mph
Gust to 20.7 mph
Temperature: 16°C
Dew Point: 14°C
Humidity: 88%
Barometer: 992 hPa
Clouds: Overcast
Visibility: 3 mi
Cloud details: Partly Cloudy 1000 ft,
Overcast 1600 ft
EGNC 121350Z 18018G33KT 140V220 5000 -SHRA SCT010 OVC016 16/14 Q0992
EGPK - Prestwick(Civ/Na, United Kingdom
Distance from station: N 82 mi
Updated: 21-10-2018 15:20
Partly Cloudy  
Partly Cloudy  
   Wind: WNW 17.3 mph
Wind: WNW 17.3 mph
Temperature: 12°C
Dew Point: 7°C
Humidity: 72%
Barometer: 1026 hPa
Clouds: Partly Cloudy
Visibility: More than 6 mi
Cloud details: Few Clouds 1200 ft,
Partly Cloudy 2600 ft
EGPK 211420Z 30015KT 9999 FEW012 SCT026 12/07 Q1026
EIDW - Dublin Airport, Ireland
Distance from station: SW 93 mi
Updated: 21-10-2018 15:00
Mostly Cloudy  
Mostly Cloudy  
   Wind: WNW 18.4 mph
Wind: WNW 18.4 mph
Temperature: 13°C
Dew Point: 9°C
Humidity: 77%
Barometer: 1029 hPa
Clouds: Mostly Cloudy
Visibility: More than 6 mi
Cloud details: Few Clouds 800 ft,
Partly Cloudy 2200 ft,
Mostly Cloudy 10000 ft
EIDW 211400Z 30016KT 9999 FEW008 SCT022 BKN100 13/09 Q1029 NOSIG
EGGP - Liverpool Airpor, United Kingdom
Distance from station: SE 98 mi
Updated: 21-10-2018 15:20
Light Rain, Drizzle, Mostly Cloudy  
Light Rain, Drizzle, Mostly Cloudy  
   Wind: NNW 9.2 mph
Wind: NNW 9.2 mph
Temperature: 12°C
Dew Point: 10°C
Humidity: 88%
Barometer: 1027 hPa
Clouds: Mostly Cloudy
Visibility: 4 mi
Cloud details: Partly Cloudy 700 ft,
Mostly Cloudy 1000 ft
EGGP 211420Z 34008KT 300V010 6000 -RADZ SCT007 BKN010 12/10 Q1027
EGPF - Glasgow Airport, United Kingdom
Distance from station: N 107 mi
Updated: 21-10-2018 15:20
Mostly Cloudy  
Mostly Cloudy  
   Wind: WNW 11.5 mph
Wind: WNW 11.5 mph
Temperature: 12°C
Dew Point: 8°C
Humidity: 77%
Barometer: 1025 hPa
Clouds: Mostly Cloudy
Visibility: More than 6 mi
Cloud details: Partly Cloudy 2800 ft,
Mostly Cloudy 3400 ft,
Mostly Cloudy 4200 ft
EGPF 211420Z AUTO 29010KT 250V320 9999 SCT028 BKN034 BKN042 12/08 Q1025
EGCC - Manchester Intl, United Kingdom
Distance from station: SE 114 mi
Updated: 21-10-2018 15:20
Light Rain, Mostly Cloudy  
Light Rain, Mostly Cloudy  
   Wind: NW 11.5 mph
Wind: NW 11.5 mph
Temperature: 13°C
Dew Point: 12°C
Humidity: 94%
Barometer: 1027 hPa
Clouds: Mostly Cloudy
Visibility: More than 6 mi
Cloud details: Few Clouds 400 ft,
Partly Cloudy 800 ft,
Mostly Cloudy 1800 ft
EGCC 211420Z 32010KT 9999 -RA FEW004 SCT008 BKN018 13/12 Q1027 RERA REDZ
EGNM - Leeds And Bradfo, United Kingdom
Distance from station: ESE 122 mi
Updated: 21-10-2018 15:20
Partly Cloudy  
Partly Cloudy  
   Wind: West 12.7 mph
Wind: West 12.7 mph
Temperature: 15°C
Dew Point: 12°C
Humidity: 82%
Barometer: 1025 hPa
Clouds: Partly Cloudy
Visibility: More than 6 mi
Cloud details: Partly Cloudy 1000 ft,
Partly Cloudy 3100 ft
EGNM 211420Z 27011KT 9999 SCT010 SCT031 15/12 Q1025

Script developed by  Saratoga-weather.org Adapted for the template by  Weerstation Leuven

You find our weather info also at:

UK Metoffice

WeatherCloud

WeatherlinkIP

Equipment we use:

Weather-station
Davis VP2

Weather-program
Weather Display

Weather-server
My Computer

Provider
Fasthosts

Davis VP2

Weather Display

My Computer

Fasthosts

 Banner1
iom-flag.gif  iom-flag.gif
Flag Counter 

Hits since site created in 2003